Time;durP1;ratioP1;P1;durP2;ratioP2;P2;SDS_P1;SDS_P2;PMS_P1;PMS_P2;Temp;Humidity;BMP_temperature;BMP_pressure;BME280_temperature;BME280_humidity;BME280_pressure;Samples;Min_cycle;Max_cycle;Signal;HPM_P1;HPM_P2
2022/03/07 00:01:33;;;;;;;10.32;8.75;;;;;;;1.30;55.20;95730.16;4292710;33;20198;-62
2022/03/07 00:03:58;;;;;;;9.67;8.87;;;;;;;1.17;55.72;95733.00;4282574;33;20234;-62
2022/03/07 00:06:24;;;;;;;9.30;8.47;;;;;;;1.30;55.50;95729.38;4290661;33;20198;-61
2022/03/07 00:08:49;;;;;;;9.33;8.47;;;;;;;1.11;55.45;95735.69;4298978;33;20209;-60
2022/03/07 00:11:16;;;;;;;8.90;8.10;;;;;;;1.01;56.00;95728.41;4299750;33;20190;-62
2022/03/07 00:13:43;;;;;;;9.02;8.32;;;;;;;1.01;56.33;95736.25;4290877;33;20205;-61
2022/03/07 00:16:08;;;;;;;9.75;8.73;;;;;;;1.11;56.40;95735.69;4290263;33;20186;-62
2022/03/07 00:18:33;;;;;;;10.47;9.17;;;;;;;1.24;56.13;95740.75;4309122;33;20207;-62
2022/03/07 00:20:59;;;;;;;8.80;8.10;;;;;;;1.14;56.26;95741.28;4303328;33;20253;-62
2022/03/07 00:23:24;;;;;;;9.50;8.47;;;;;;;1.07;56.47;95745.78;4300874;33;20233;-62
2022/03/07 00:25:51;;;;;;;11.37;8.90;;;;;;;0.78;57.91;95736.16;4303806;33;20201;-62
2022/03/07 00:28:16;;;;;;;8.93;8.10;;;;;;;0.81;58.26;95743.56;4312678;33;20194;-62
2022/03/07 00:30:42;;;;;;;10.47;9.30;;;;;;;0.75;58.56;95740.03;4301566;33;20204;-62
2022/03/07 00:33:08;;;;;;;9.07;8.33;;;;;;;0.90;58.66;95739.59;4304507;33;20217;-61
2022/03/07 00:35:33;;;;;;;9.90;8.33;;;;;;;1.04;58.50;95741.00;4289541;33;20216;-61
2022/03/07 00:37:59;;;;;;;9.23;8.43;;;;;;;0.94;59.00;95745.97;4288441;33;20221;-62
2022/03/07 00:40:24;;;;;;;9.70;8.80;;;;;;;1.08;58.95;95749.19;4300409;33;20198;-62
2022/03/07 00:42:49;;;;;;;9.37;8.57;;;;;;;1.09;58.87;95748.97;4302316;33;20194;-62
2022/03/07 00:45:15;;;;;;;9.37;8.47;;;;;;;1.03;59.52;95745.47;4301081;33;20256;-62
2022/03/07 00:47:40;;;;;;;9.93;8.77;;;;;;;0.97;60.42;95748.97;4302625;33;20213;-62
2022/03/07 00:50:07;;;;;;;10.83;9.27;;;;;;;1.02;60.59;95741.25;4302233;33;20195;-61
2022/03/07 00:52:32;;;;;;;9.60;8.70;;;;;;;1.00;61.33;95737.28;4293496;33;20257;-62
2022/03/07 00:54:58;;;;;;;9.47;8.60;;;;;;;1.09;61.50;95738.53;4300497;33;20217;-62
2022/03/07 00:57:23;;;;;;;9.80;8.80;;;;;;;1.04;62.08;95733.16;4295824;33;20246;-62
2022/03/07 00:59:48;;;;;;;9.10;8.23;;;;;;;0.91;62.95;95736.78;4302666;33;20261;-62
2022/03/07 01:02:14;;;;;;;10.27;9.27;;;;;;;0.94;63.71;95738.16;4299831;33;20205;-61
2022/03/07 01:04:39;;;;;;;9.57;8.77;;;;;;;0.83;64.12;95733.69;4300014;33;20274;-62
2022/03/07 01:07:04;;;;;;;8.93;8.23;;;;;;;0.86;64.58;95728.81;4301506;33;20178;-60
2022/03/07 01:09:30;;;;;;;10.13;9.13;;;;;;;0.91;64.67;95730.75;4304512;33;20195;-61
2022/03/07 01:11:55;;;;;;;11.60;9.00;;;;;;;1.02;64.40;95733.41;4305533;33;20238;-61
2022/03/07 01:14:21;;;;;;;10.17;9.27;;;;;;;0.84;65.43;95732.66;4310671;33;20210;-62
2022/03/07 01:16:47;;;;;;;9.73;8.77;;;;;;;0.71;66.38;95728.41;4279250;33;20195;-60
2022/03/07 01:19:12;;;;;;;11.33;10.10;;;;;;;0.80;66.43;95734.13;4300234;33;20182;-61
2022/03/07 01:21:39;;;;;;;10.57;9.57;;;;;;;0.63;67.43;95733.94;4302079;33;20294;-61
2022/03/07 01:24:05;;;;;;;10.35;9.32;;;;;;;0.59;67.90;95736.22;4301204;33;20254;-61
2022/03/07 01:26:31;;;;;;;9.75;8.85;;;;;;;0.45;68.52;95733.97;4303003;33;20190;-61
2022/03/07 01:28:56;;;;;;;9.33;8.53;;;;;;;0.48;68.54;95736.12;4302979;33;20182;-60
2022/03/07 01:31:21;;;;;;;11.57;9.83;;;;;;;0.65;68.48;95735.31;4285579;33;20195;-60
2022/03/07 01:33:47;;;;;;;11.50;10.33;;;;;;;0.73;68.45;95736.84;4287838;33;20204;-60
2022/03/07 01:36:12;;;;;;;11.57;10.10;;;;;;;0.82;68.24;95735.50;4297561;33;20186;-62
2022/03/07 01:38:37;;;;;;;11.60;10.50;;;;;;;0.82;68.25;95726.88;4303393;33;20186;-61
2022/03/07 01:41:06;;;;;;;10.97;9.90;;;;;;;0.88;68.44;95728.59;4304592;33;20217;-62
2022/03/07 01:43:33;;;;;;;9.90;9.00;;;;;;;0.95;68.11;95724.06;4290627;33;20178;-61
2022/03/07 01:45:58;;;;;;;11.15;9.65;;;;;;;1.06;67.91;95722.50;4302113;33;20217;-62
2022/03/07 01:48:23;;;;;;;12.20;11.10;;;;;;;0.88;68.62;95725.97;4301617;33;20198;-62
2022/03/07 01:50:49;;;;;;;12.37;11.10;;;;;;;0.69;69.67;95728.62;4298345;33;20252;-61
2022/03/07 01:53:14;;;;;;;12.30;11.07;;;;;;;0.68;69.90;95724.44;4307506;33;20245;-61
2022/03/07 01:55:40;;;;;;;11.80;10.50;;;;;;;0.51;70.46;95730.50;4304666;33;20202;-61
2022/03/07 01:58:05;;;;;;;11.53;10.43;;;;;;;0.48;70.84;95731.72;4304152;33;20183;-61
2022/03/07 02:00:31;;;;;;;12.47;11.20;;;;;;;0.72;70.31;95729.22;4316813;33;20213;-61
2022/03/07 02:02:57;;;;;;;12.43;11.23;;;;;;;0.60;70.76;95719.53;4300640;33;20210;-62
2022/03/07 02:05:22;;;;;;;12.27;11.10;;;;;;;0.71;70.54;95719.78;4298087;33;20225;-62
2022/03/07 02:07:48;;;;;;;13.13;11.73;;;;;;;0.34;71.63;95725.06;4303038;33;20190;-61
2022/03/07 02:10:13;;;;;;;12.93;11.73;;;;;;;0.42;71.56;95726.56;4295083;33;20198;-61
2022/03/07 02:12:39;;;;;;;12.53;11.23;;;;;;;0.37;71.85;95724.66;4299213;33;23871;-61
2022/03/07 02:15:07;;;;;;;13.23;11.93;;;;;;;0.30;72.29;95721.31;4314090;33;20205;-61
2022/03/07 02:17:33;;;;;;;13.50;12.15;;;;;;;0.27;72.51;95716.53;4302362;33;20182;-62
2022/03/07 02:19:58;;;;;;;13.33;12.13;;;;;;;0.30;72.55;95710.87;4300092;33;20208;-61
2022/03/07 02:22:23;;;;;;;12.57;11.37;;;;;;;0.31;72.58;95717.69;4318551;33;20256;-62
2022/03/07 02:24:49;;;;;;;14.47;12.13;;;;;;;0.23;73.02;95715.38;4297407;33;20237;-61
2022/03/07 02:27:18;;;;;;;14.40;12.90;;;;;;;0.32;72.70;95709.66;4304463;33;20237;-61
2022/03/07 02:29:44;;;;;;;13.20;11.75;;;;;;;0.18;72.96;95723.06;4292494;33;20250;-62
2022/03/07 02:32:10;;;;;;;13.90;11.98;;;;;;;0.38;72.58;95715.00;4316358;33;20291;-61
2022/03/07 02:34:35;;;;;;;13.83;12.43;;;;;;;0.35;72.16;95721.47;4312234;33;20195;-61
2022/03/07 02:37:01;;;;;;;15.37;11.80;;;;;;;0.21;72.70;95720.78;4294747;33;20182;-62
2022/03/07 02:39:27;;;;;;;13.77;12.23;;;;;;;0.38;72.68;95715.81;4296176;33;20190;-62
2022/03/07 02:41:54;;;;;;;13.65;12.18;;;;;;;0.59;71.67;95712.72;4314451;33;20264;-62
2022/03/07 02:44:20;;;;;;;14.15;12.75;;;;;;;0.76;70.64;95718.13;4314150;33;20209;-62
2022/03/07 02:46:45;;;;;;;14.80;12.57;;;;;;;0.49;70.99;95717.66;4306211;33;20190;-61
2022/03/07 02:49:10;;;;;;;13.33;12.13;;;;;;;0.67;70.59;95724.66;4303649;33;20212;-62
2022/03/07 02:51:36;;;;;;;12.40;11.23;;;;;;;0.42;71.10;95732.59;4289784;33;20205;-61
2022/03/07 02:54:02;;;;;;;12.60;11.40;;;;;;;0.30;71.33;95735.16;4316810;33;20268;-61
2022/03/07 02:56:27;;;;;;;12.73;11.53;;;;;;;0.28;70.92;95723.34;4301875;33;20312;-62
2022/03/07 02:58:53;;;;;;;12.90;10.90;;;;;;;0.16;71.41;95731.09;4307966;33;20187;-62
2022/03/07 03:01:18;;;;;;;13.53;10.90;;;;;;;-0.03;71.73;95726.91;4299241;33;20225;-61
2022/03/07 03:03:44;;;;;;;11.57;10.47;;;;;;;0.02;71.45;95727.03;4301599;33;20190;-61
2022/03/07 03:06:11;;;;;;;10.93;9.93;;;;;;;0.21;70.84;95727.81;4303452;33;20288;-62
2022/03/07 03:08:37;;;;;;;11.05;10.05;;;;;;;0.23;70.32;95726.59;4304272;33;20265;-61
2022/03/07 03:11:06;;;;;;;10.00;9.00;;;;;;;0.24;70.24;95733.41;4300485;33;20210;-62
2022/03/07 03:13:31;;;;;;;9.90;8.98;;;;;;;0.16;68.73;95731.09;4303664;33;20199;-62
2022/03/07 03:15:57;;;;;;;9.97;8.97;;;;;;;0.15;68.91;95741.75;4302629;33;20248;-62
2022/03/07 03:18:23;;;;;;;9.47;8.60;;;;;;;0.07;69.57;95736.81;4296570;33;20266;-61
2022/03/07 03:20:51;;;;;;;9.57;8.77;;;;;;;0.16;68.96;95730.31;4304710;33;20186;-62
2022/03/07 03:23:17;;;;;;;8.70;7.80;;;;;;;0.13;68.24;95735.97;4296642;33;20190;-61
2022/03/07 03:25:42;;;;;;;9.18;8.38;;;;;;;0.36;67.60;95738.69;4296668;33;20243;-62
2022/03/07 03:28:08;;;;;;;10.50;9.47;;;;;;;0.28;67.31;95731.16;4302496;33;20202;-61
2022/03/07 03:30:34;;;;;;;9.27;8.40;;;;;;;0.21;67.29;95731.22;4301153;33;20202;-62
2022/03/07 03:33:00;;;;;;;8.90;8.10;;;;;;;0.26;67.45;95731.38;4297811;33;20182;-61
2022/03/07 03:35:25;;;;;;;8.40;7.70;;;;;;;0.16;67.17;95738.94;4305465;33;20205;-61
2022/03/07 03:37:51;;;;;;;8.67;7.77;;;;;;;0.18;66.68;95736.09;4293599;33;20261;-61
2022/03/07 03:40:17;;;;;;;8.47;7.77;;;;;;;0.04;67.22;95729.41;4305331;33;20203;-61
2022/03/07 03:42:42;;;;;;;8.50;7.70;;;;;;;0.20;67.00;95737.50;4310800;33;20335;-61
2022/03/07 03:45:08;;;;;;;8.17;7.50;;;;;;;0.26;66.33;95733.19;4311979;33;20194;-61
2022/03/07 03:47:46;;;;;;;9.27;8.38;;;;;;;0.32;66.18;95727.09;4296872;33;20179;-61
2022/03/07 03:50:13;;;;;;;8.13;7.12;;;;;;;0.47;65.29;95732.72;4302223;33;20182;-60
2022/03/07 03:52:39;;;;;;;8.13;7.43;;;;;;;0.28;65.61;95720.72;4300079;33;20205;-60
2022/03/07 03:55:07;;;;;;;7.73;7.07;;;;;;;0.29;65.54;95733.56;4299813;33;20190;-61
2022/03/07 03:57:32;;;;;;;7.35;6.85;;;;;;;0.10;66.20;95729.34;4315989;33;20182;-62
2022/03/07 03:59:59;;;;;;;8.87;7.93;;;;;;;0.17;66.18;95721.47;4302052;33;20267;-61
2022/03/07 04:02:24;;;;;;;8.23;7.43;;;;;;;0.09;66.07;95726.97;4314393;33;20189;-61
2022/03/07 04:04:50;;;;;;;8.20;7.43;;;;;;;0.05;66.57;95731.81;4301941;33;20205;-60
2022/03/07 04:07:15;;;;;;;8.90;8.10;;;;;;;0.15;66.30;95741.75;4303535;33;20190;-61
2022/03/07 04:09:41;;;;;;;7.33;6.67;;;;;;;0.12;66.37;95736.97;4294141;33;20245;-61
2022/03/07 04:12:07;;;;;;;7.77;7.00;;;;;;;0.38;65.37;95738.50;4288216;33;20203;-62
2022/03/07 04:14:32;;;;;;;8.32;7.55;;;;;;;0.22;65.78;95745.06;4300610;33;20262;-60
2022/03/07 04:16:58;;;;;;;7.67;7.00;;;;;;;0.08;65.87;95744.44;4311902;33;20229;-61
2022/03/07 04:19:23;;;;;;;10.13;6.80;;;;;;;-0.02;66.20;95742.34;4299781;33;20186;-62
2022/03/07 04:21:49;;;;;;;8.23;7.43;;;;;;;0.02;66.50;95737.47;4297995;33;20183;-60
2022/03/07 04:24:14;;;;;;;8.07;7.37;;;;;;;0.00;66.66;95736.91;4314616;33;20189;-62
2022/03/07 04:26:41;;;;;;;8.10;7.30;;;;;;;0.16;66.09;95735.53;4311823;33;20393;-60
2022/03/07 04:29:08;;;;;;;8.63;7.68;;;;;;;0.00;66.25;95735.06;4277432;33;20182;-61
2022/03/07 04:31:38;;;;;;;7.53;6.93;;;;;;;0.00;66.56;95735.06;4292512;33;20194;-61
2022/03/07 04:34:06;;;;;;;8.02;7.22;;;;;;;-0.16;67.18;95733.03;4302089;33;20195;-61
2022/03/07 04:36:35;;;;;;;8.32;7.62;;;;;;;0.05;66.79;95734.41;4296312;33;20186;-61
2022/03/07 04:39:02;;;;;;;8.10;7.32;;;;;;;0.02;66.63;95732.25;4295806;33;20186;-61
2022/03/07 04:41:29;;;;;;;8.77;7.97;;;;;;;0.33;65.72;95731.31;4289410;33;20190;-61
2022/03/07 04:43:54;;;;;;;9.15;8.25;;;;;;;0.11;65.97;95740.59;4293812;33;20214;-60
2022/03/07 04:46:19;;;;;;;9.20;7.87;;;;;;;0.09;66.45;95742.63;4296177;33;20241;-61
2022/03/07 04:48:45;;;;;;;9.20;8.00;;;;;;;-0.04;66.88;95740.94;4294682;33;20198;-61
2022/03/07 04:51:13;;;;;;;9.67;8.13;;;;;;;0.10;66.61;95742.41;4277316;33;20194;-62
2022/03/07 04:53:39;;;;;;;8.88;7.97;;;;;;;0.09;66.39;95738.19;4316097;33;20190;-61
2022/03/07 04:56:05;;;;;;;9.07;8.23;;;;;;;-0.01;66.59;95738.72;4303189;33;20206;-61
2022/03/07 04:58:30;;;;;;;12.10;8.23;;;;;;;0.29;66.12;95732.75;4302031;33;20221;-61
2022/03/07 05:00:55;;;;;;;8.63;7.73;;;;;;;0.17;66.03;95737.12;4311814;33;20208;-62
2022/03/07 05:03:21;;;;;;;8.17;7.37;;;;;;;0.30;65.75;95729.12;4296466;33;20245;-60
2022/03/07 05:05:48;;;;;;;8.97;7.47;;;;;;;0.46;65.30;95731.13;4296193;33;20251;-62
2022/03/07 05:08:13;;;;;;;8.50;7.37;;;;;;;0.22;65.50;95732.03;4297472;33;20190;-61
2022/03/07 05:10:40;;;;;;;9.40;8.37;;;;;;;0.24;65.93;95725.56;4305066;33;20220;-61
2022/03/07 05:13:06;;;;;;;9.20;8.38;;;;;;;0.31;65.45;95731.53;4287363;33;20231;-61
2022/03/07 05:15:32;;;;;;;8.85;8.05;;;;;;;0.00;66.31;95732.47;4301180;33;20201;-61
2022/03/07 05:17:58;;;;;;;8.87;8.00;;;;;;;-0.06;66.77;95735.16;4291409;33;20229;-62
2022/03/07 05:20:25;;;;;;;8.90;8.10;;;;;;;0.11;66.42;95735.38;4296113;33;20197;-62
2022/03/07 05:22:51;;;;;;;9.93;7.80;;;;;;;0.40;65.41;95739.87;4302218;33;20186;-60
2022/03/07 05:25:17;;;;;;;8.32;7.60;;;;;;;0.22;65.91;95745.06;4292862;33;20205;-60
2022/03/07 05:27:43;;;;;;;8.80;8.02;;;;;;;0.22;65.68;95747.69;4304885;33;20195;-61
2022/03/07 05:30:13;;;;;;;9.40;7.80;;;;;;;0.16;65.88;95745.97;4293157;33;20190;-62
2022/03/07 05:32:38;;;;;;;8.43;7.65;;;;;;;0.10;66.28;95746.81;4292759;33;20234;-62
2022/03/07 05:35:04;;;;;;;8.80;7.77;;;;;;;0.14;66.21;95746.16;4307103;33;20224;-61
2022/03/07 05:37:30;;;;;;;8.68;7.93;;;;;;;0.09;65.91;95745.22;4303925;33;20201;-62
2022/03/07 05:39:55;;;;;;;9.00;8.10;;;;;;;0.08;66.33;95746.22;4289948;33;20253;-61
2022/03/07 05:42:21;;;;;;;8.60;7.80;;;;;;;0.08;66.03;95751.44;4296678;33;20258;-62
2022/03/07 05:44:46;;;;;;;9.00;8.17;;;;;;;-0.14;67.15;95741.44;4299903;33;20242;-60
2022/03/07 05:47:13;;;;;;;8.23;7.53;;;;;;;0.02;66.72;95747.09;4305103;33;20277;-61
2022/03/07 05:49:38;;;;;;;13.15;7.75;;;;;;;0.12;66.58;95748.19;4304649;33;20236;-62
2022/03/07 05:52:04;;;;;;;9.07;8.27;;;;;;;0.25;66.04;95749.84;4305956;33;20253;-62
2022/03/07 05:54:30;;;;;;;8.70;7.45;;;;;;;0.05;66.67;95746.66;4304424;33;20202;-62
2022/03/07 05:56:55;;;;;;;8.83;8.03;;;;;;;0.04;66.69;95743.25;4291480;33;20197;-61
2022/03/07 05:59:20;;;;;;;8.50;7.73;;;;;;;0.24;66.07;95746.44;4290652;33;20266;-62
2022/03/07 06:01:46;;;;;;;10.90;7.97;;;;;;;0.31;65.61;95741.97;4305167;33;20250;-62
2022/03/07 06:04:11;;;;;;;8.83;8.00;;;;;;;0.03;66.26;95744.28;4289851;33;20198;-62
2022/03/07 06:06:37;;;;;;;9.10;8.30;;;;;;;-0.24;67.27;95748.16;4304140;33;20186;-62
2022/03/07 06:09:02;;;;;;;8.70;7.83;;;;;;;-0.19;67.57;95749.09;4312725;33;20208;-61
2022/03/07 06:11:27;;;;;;;8.30;7.70;;;;;;;-0.17;67.70;95747.06;4292859;33;20265;-60
2022/03/07 06:13:53;;;;;;;9.43;8.43;;;;;;;-0.05;67.40;95747.19;4297008;33;20286;-61
2022/03/07 06:16:18;;;;;;;9.00;8.10;;;;;;;0.05;66.94;95757.09;4297166;33;20198;-62
2022/03/07 06:18:44;;;;;;;10.10;8.70;;;;;;;-0.03;67.17;95751.16;4303980;33;20249;-62
2022/03/07 06:21:09;;;;;;;9.40;8.37;;;;;;;0.00;67.07;95748.09;4296658;33;20346;-62
2022/03/07 06:23:36;;;;;;;9.53;8.67;;;;;;;-0.02;66.98;95757.97;4301609;33;20198;-62
2022/03/07 06:26:05;;;;;;;10.10;8.32;;;;;;;-0.04;67.73;95754.00;4296312;33;20209;-62
2022/03/07 06:28:31;;;;;;;8.93;8.00;;;;;;;0.13;67.00;95762.03;4287902;33;20187;-61
2022/03/07 06:30:56;;;;;;;8.80;8.00;;;;;;;0.03;66.98;95756.50;4307346;33;20259;-62
2022/03/07 06:33:21;;;;;;;10.93;9.27;;;;;;;-0.17;67.79;95765.31;4289984;33;20230;-62
2022/03/07 06:35:47;;;;;;;9.50;8.60;;;;;;;-0.26;68.24;95766.62;4311755;33;20190;-61
2022/03/07 06:38:14;;;;;;;10.47;9.17;;;;;;;-0.04;67.69;95767.81;4296122;33;20315;-61
2022/03/07 06:40:42;;;;;;;8.85;8.00;;;;;;;0.07;67.70;95771.50;4303250;33;20182;-61
2022/03/07 06:43:08;;;;;;;9.10;8.30;;;;;;;0.31;66.41;95775.88;4303380;33;20201;-60
2022/03/07 06:45:34;;;;;;;9.60;8.77;;;;;;;0.31;66.52;95781.09;4298005;33;20233;-62
2022/03/07 06:47:59;;;;;;;9.70;8.63;;;;;;;0.33;66.48;95786.09;4287047;33;20183;-62
2022/03/07 06:50:25;;;;;;;9.40;8.50;;;;;;;0.25;66.66;95791.59;4301593;33;20182;-62
2022/03/07 06:52:51;;;;;;;9.20;8.40;;;;;;;0.17;67.30;95791.88;4302721;33;20190;-62
2022/03/07 06:55:16;;;;;;;9.87;8.87;;;;;;;0.27;66.88;95797.38;4304409;33;20270;-62
2022/03/07 06:57:42;;;;;;;10.00;9.10;;;;;;;0.28;66.79;95794.56;4299734;33;20262;-61
2022/03/07 07:00:13;;;;;;;10.80;8.63;;;;;;;0.29;66.71;95800.59;4301269;33;20191;-61
2022/03/07 07:02:39;;;;;;;9.85;8.95;;;;;;;0.23;66.90;95797.03;4290196;33;20234;-62
2022/03/07 07:05:05;;;;;;;9.30;8.40;;;;;;;0.22;67.27;95792.81;4300330;33;20204;-61
2022/03/07 07:07:31;;;;;;;11.90;10.75;;;;;;;0.26;67.04;95786.16;4292052;33;20124;-60
2022/03/07 07:09:57;;;;;;;13.20;10.00;;;;;;;0.48;66.65;95783.91;4293742;33;20186;-62
2022/03/07 07:12:22;;;;;;;12.73;9.43;;;;;;;0.59;66.25;95779.78;4307166;33;20182;-62
2022/03/07 07:14:48;;;;;;;10.30;9.33;;;;;;;0.67;66.37;95777.66;4307824;33;20182;-62
2022/03/07 07:17:16;;;;;;;9.97;9.07;;;;;;;0.63;66.02;95771.28;4300854;33;20195;-61
2022/03/07 07:19:43;;;;;;;10.40;9.40;;;;;;;0.74;65.53;95782.00;4301229;33;20206;-61
2022/03/07 07:22:10;;;;;;;11.52;10.40;;;;;;;0.60;65.97;95784.00;4312091;33;20247;-62
2022/03/07 07:24:36;;;;;;;13.68;10.70;;;;;;;0.52;65.94;95790.28;4300702;33;20185;-61
2022/03/07 07:27:02;;;;;;;11.63;10.43;;;;;;;0.51;66.12;95798.34;4288523;33;20271;-61
2022/03/07 07:29:27;;;;;;;11.33;10.20;;;;;;;0.43;66.19;95783.75;4312938;33;20249;-61
2022/03/07 07:31:52;;;;;;;65.03;13.53;;;;;;;0.48;66.23;95789.13;4303995;33;20210;-51
2022/03/07 07:34:19;;;;;;;16.80;10.00;;;;;;;4.35;95.71;95777.81;4271147;33;20221;-50
2022/03/07 07:36:45;;;;;;;11.47;10.37;;;;;;;6.60;76.76;95775.12;4301382;33;20257;-52
2022/03/07 07:39:10;;;;;;;11.70;8.33;;;;;;;8.35;58.24;95773.28;4288691;33;20363;-51
2022/03/07 07:41:35;;;;;;;9.30;8.40;;;;;;;9.26;52.81;95773.75;4289248;33;20283;-51
2022/03/07 07:44:01;;;;;;;9.70;8.80;;;;;;;9.86;47.85;95784.22;4300293;33;20194;-53
2022/03/07 07:46:27;;;;;;;9.60;8.67;;;;;;;10.18;45.10;95786.34;4295743;33;20237;-49
2022/03/07 07:48:53;;;;;;;9.53;8.73;;;;;;;10.27;44.44;95800.59;4302519;33;20283;-54
2022/03/07 07:51:19;;;;;;;9.57;8.73;;;;;;;10.05;42.63;95800.22;4291292;33;20193;-53
2022/03/07 07:53:45;;;;;;;9.47;8.73;;;;;;;10.29;42.83;95804.56;4289488;33;20294;-49
2022/03/07 07:56:10;;;;;;;9.37;8.50;;;;;;;10.46;42.06;95813.94;4289654;33;20232;-52
2022/03/07 07:58:35;;;;;;;10.70;9.30;;;;;;;10.64;45.20;95815.87;4295548;33;20186;-49
2022/03/07 08:01:01;;;;;;;10.00;9.20;;;;;;;9.96;41.33;95816.75;4291381;33;20217;-51
2022/03/07 08:03:26;;;;;;;9.57;8.77;;;;;;;10.29;41.40;95822.31;4315717;33;20237;-52
2022/03/07 08:05:52;;;;;;;9.13;8.40;;;;;;;10.24;41.15;95823.16;4290000;33;20244;-51
2022/03/07 08:08:18;;;;;;;10.50;9.63;;;;;;;10.33;40.74;95818.84;4303520;33;20209;-53
2022/03/07 08:10:43;;;;;;;10.33;9.43;;;;;;;10.15;40.04;95816.84;4314998;33;20252;-52
2022/03/07 08:13:09;;;;;;;10.17;9.37;;;;;;;9.97;40.29;95825.47;4294405;33;20270;-50
2022/03/07 08:15:34;;;;;;;11.40;10.23;;;;;;;9.89;39.79;95832.16;4302705;33;20253;-52
2022/03/07 08:18:00;;;;;;;10.50;9.57;;;;;;;9.71;40.37;95834.66;4295039;33;20241;-50
2022/03/07 08:20:27;;;;;;;10.87;9.80;;;;;;;9.92;40.60;95833.47;4297970;33;20189;-50
2022/03/07 08:22:53;;;;;;;10.50;9.53;;;;;;;9.98;40.40;95832.34;4290014;33;20208;-53
2022/03/07 08:25:19;;;;;;;9.60;8.80;;;;;;;9.92;40.21;95836.09;4289999;33;20290;-53
2022/03/07 08:31:55;;;;;;;13.00;11.43;;;;;;;9.31;40.70;95849.72;4299700;33;20334;-54
2022/03/07 08:34:20;;;;;;;12.87;11.73;;;;;;;5.72;44.88;95861.66;4264722;33;20287;-51
2022/03/07 08:36:45;;;;;;;12.83;11.53;;;;;;;4.25;48.71;95861.69;4300617;33;20315;-51
2022/03/07 08:39:11;;;;;;;12.77;11.57;;;;;;;3.97;50.96;95860.72;4299267;33;20191;-52
2022/03/07 08:41:37;;;;;;;13.20;12.03;;;;;;;3.66;50.91;95863.88;4299605;33;20246;-61
2022/03/07 08:44:03;;;;;;;16.57;13.50;;;;;;;3.34;51.82;95863.53;4299903;33;20246;-61
2022/03/07 08:46:28;;;;;;;13.53;12.33;;;;;;;3.36;51.16;95869.34;4289983;33;20405;-61
2022/03/07 08:48:53;;;;;;;13.83;12.53;;;;;;;2.66;52.79;95867.72;4302508;33;20190;-61
2022/03/07 08:51:19;;;;;;;13.73;12.23;;;;;;;2.35;54.23;95874.09;4306371;33;20202;-61
2022/03/07 08:53:45;;;;;;;13.73;12.33;;;;;;;2.11;55.06;95876.94;4305230;33;20217;-61
2022/03/07 08:56:11;;;;;;;13.30;12.00;;;;;;;1.99;55.36;95877.72;4291310;33;20301;-61
2022/03/07 08:58:37;;;;;;;13.70;12.40;;;;;;;1.96;55.40;95882.59;4292328;33;20246;-61
2022/03/07 09:01:05;;;;;;;15.77;13.03;;;;;;;1.85;56.08;95884.19;4291243;33;20194;-61
2022/03/07 09:03:31;;;;;;;17.08;13.13;;;;;;;1.56;57.14;95879.78;4300353;33;20198;-61
2022/03/07 09:05:56;;;;;;;13.40;12.07;;;;;;;1.61;57.09;95882.53;4303667;33;20229;-62
2022/03/07 09:08:21;;;;;;;14.13;12.83;;;;;;;1.52;57.59;95881.25;4305052;33;20195;-62
2022/03/07 09:10:48;;;;;;;15.07;12.67;;;;;;;1.62;57.98;95877.09;4298566;33;20186;-61
2022/03/07 09:13:13;;;;;;;12.52;11.32;;;;;;;1.54;57.25;95881.81;4299239;33;20204;-61
2022/03/07 09:15:42;;;;;;;14.30;13.00;;;;;;;1.72;57.09;95892.22;4305791;33;20193;-61
2022/03/07 09:18:07;;;;;;;15.75;12.90;;;;;;;1.72;57.28;95889.59;4300462;33;20197;-61
2022/03/07 09:20:33;;;;;;;14.93;13.43;;;;;;;1.74;57.44;95882.31;4304409;33;20182;-62
2022/03/07 09:22:58;;;;;;;16.97;13.83;;;;;;;1.64;57.94;95893.34;4303013;33;20248;-61
2022/03/07 09:25:23;;;;;;;15.27;13.77;;;;;;;1.71;57.69;95886.19;4304304;33;20212;-62
2022/03/07 09:27:50;;;;;;;14.27;12.83;;;;;;;1.58;57.69;95886.38;4318982;33;20209;-61
2022/03/07 09:30:15;;;;;;;16.98;13.88;;;;;;;1.78;57.42;95891.31;4288541;33;20226;-60
2022/03/07 09:32:41;;;;;;;14.93;13.40;;;;;;;1.53;57.71;95895.91;4302521;33;20228;-61
2022/03/07 09:35:07;;;;;;;15.10;13.60;;;;;;;1.57;58.09;95894.44;4315922;33;20213;-61
2022/03/07 09:37:33;;;;;;;18.23;14.57;;;;;;;1.74;57.64;95892.78;4298972;33;20198;-61
2022/03/07 09:39:59;;;;;;;18.20;13.97;;;;;;;1.89;57.49;95901.00;4314696;33;20191;-59
2022/03/07 09:42:28;;;;;;;18.27;14.13;;;;;;;2.04;56.95;95903.22;4312292;33;20233;-59
2022/03/07 09:44:54;;;;;;;15.40;13.73;;;;;;;1.92;57.08;95900.56;4305106;33;20194;-62
2022/03/07 09:47:22;;;;;;;14.85;13.35;;;;;;;2.05;57.29;95910.03;4302303;33;20253;-64
2022/03/07 09:49:50;;;;;;;15.32;13.68;;;;;;;2.29;55.98;95905.63;4318814;33;20190;-61
2022/03/07 09:52:16;;;;;;;15.90;13.85;;;;;;;2.16;55.43;95909.25;4303725;33;20209;-60
2022/03/07 09:54:42;;;;;;;15.23;13.82;;;;;;;2.47;55.14;95908.16;4318941;33;20205;-60
2022/03/07 09:57:07;;;;;;;15.13;13.53;;;;;;;2.44;54.10;95915.66;4294059;33;20242;-60
2022/03/07 09:59:34;;;;;;;14.70;12.97;;;;;;;2.28;54.13;95911.91;4317017;33;20190;-60
2022/03/07 10:02:16;;;;;;;14.77;13.13;;;;;;;2.19;54.77;95914.03;4291948;33;20216;-59
2022/03/07 10:04:50;;;;;;;19.52;13.85;;;;;;;2.44;54.04;95911.22;4294041;33;20194;-61
2022/03/07 10:07:15;;;;;;;14.80;13.20;;;;;;;2.35;54.04;95912.56;4306489;33;20224;-60
2022/03/07 10:09:41;;;;;;;17.17;13.77;;;;;;;2.06;54.81;95917.69;4313214;33;20186;-60
2022/03/07 10:12:12;;;;;;;15.00;13.40;;;;;;;2.15;54.65;95922.56;4294891;33;20209;-59
2022/03/07 10:14:44;;;;;;;17.25;14.18;;;;;;;2.42;54.33;95926.34;4304063;33;20209;-59
2022/03/07 10:17:24;;;;;;;15.82;14.02;;;;;;;2.23;53.84;95930.91;4302462;33;20210;-60
2022/03/07 10:19:52;;;;;;;15.52;13.62;;;;;;;2.23;54.11;95925.66;4304892;33;20204;-60
2022/03/07 10:22:27;;;;;;;15.65;14.05;;;;;;;2.18;54.14;95935.19;4295626;33;20194;-59
2022/03/07 10:25:05;;;;;;;16.87;14.27;;;;;;;2.14;54.28;95926.19;4288352;33;20186;-59
2022/03/07 10:27:39;;;;;;;16.30;13.40;;;;;;;2.10;55.18;95933.69;4301461;33;20198;-60
2022/03/07 10:30:26;;;;;;;16.25;14.55;;;;;;;2.08;54.97;95937.59;4294204;33;20199;-61
2022/03/07 10:32:55;;;;;;;19.17;14.60;;;;;;;2.02;55.11;95937.44;4310233;33;20228;-60
2022/03/07 10:35:34;;;;;;;16.58;14.77;;;;;;;2.10;55.46;95940.75;4297758;33;20186;-62
2022/03/07 10:38:05;;;;;;;14.75;12.77;;;;;;;2.37;54.53;95927.03;4298662;33;20269;-61
2022/03/07 10:40:33;;;;;;;16.45;14.75;;;;;;;2.36;55.18;95927.25;4305638;33;20285;-61
2022/03/07 10:43:00;;;;;;;16.65;14.23;;;;;;;2.31;55.38;95929.75;4289460;33;20205;-60
2022/03/07 10:45:27;;;;;;;16.55;14.23;;;;;;;2.51;53.70;95929.41;4303790;33;20205;-61
2022/03/07 10:47:59;;;;;;;15.90;14.20;;;;;;;2.44;53.65;95926.94;4303203;33;20232;-63
2022/03/07 10:50:26;;;;;;;15.13;13.62;;;;;;;2.70;53.35;95925.69;4289695;33;20205;-59
2022/03/07 10:52:59;;;;;;;17.12;15.38;;;;;;;2.95;52.67;95920.97;4304743;33;20198;-62
2022/03/07 10:55:27;;;;;;;14.55;13.05;;;;;;;3.02;51.60;95928.72;4302012;33;20233;-58
2022/03/07 10:58:03;;;;;;;16.40;14.65;;;;;;;2.62;51.81;95939.91;4304126;33;20190;-61
2022/03/07 11:00:33;;;;;;;15.13;13.50;;;;;;;2.55;52.30;95925.31;4288706;33;20246;-62
2022/03/07 11:03:00;;;;;;;14.80;13.30;;;;;;;2.45;52.29;95923.28;4306896;33;20246;-60
2022/03/07 11:05:27;;;;;;;16.25;14.55;;;;;;;2.58;51.86;95925.69;4291105;33;20186;-62
2022/03/07 11:07:54;;;;;;;13.38;11.82;;;;;;;2.69;51.92;95908.37;4294324;33;20210;-61
2022/03/07 11:10:20;;;;;;;16.55;14.85;;;;;;;2.67;51.37;95919.09;4287633;33;20213;-61
2022/03/07 11:12:45;;;;;;;16.07;14.37;;;;;;;2.72;51.55;95916.56;4294769;33;20270;-61
2022/03/07 11:15:14;;;;;;;17.33;14.77;;;;;;;2.68;50.91;95920.69;4285627;33;20212;-62
2022/03/07 11:17:46;;;;;;;14.05;12.65;;;;;;;2.86;49.95;95911.88;4282135;33;20229;-61
2022/03/07 11:20:16;;;;;;;15.23;13.55;;;;;;;2.78;49.57;95914.06;4292951;33;20217;-60
2022/03/07 11:22:42;;;;;;;16.60;14.80;;;;;;;2.96;49.56;95921.78;4287036;33;20199;-62
2022/03/07 11:25:10;;;;;;;15.87;14.13;;;;;;;3.12;49.10;95909.81;4281966;33;20213;-60
2022/03/07 11:27:37;;;;;;;15.70;14.10;;;;;;;3.09;49.11;95919.72;4276008;33;20195;-62
2022/03/07 11:30:21;;;;;;;15.50;13.90;;;;;;;3.05;48.97;95910.72;4294484;33;20309;-59
2022/03/07 11:32:52;;;;;;;15.50;13.90;;;;;;;2.88;49.14;95922.13;4288130;33;20199;-61